createdAt,value
2019-03-02T01:02:04.426Z,95324.13
2019-03-02T01:07:02.639Z,95326.34
2019-03-02T01:12:05.899Z,95324.66
2019-03-02T01:17:06.065Z,95326.47
2019-03-02T01:22:07.371Z,95323.98
2019-03-02T01:27:08.710Z,95330.87
2019-03-02T02:35:39.483Z,95311.89
2019-03-02T02:40:35.375Z,95304.26
2019-03-02T02:45:36.666Z,95313.80
2019-03-02T02:50:37.965Z,95297.65
2019-03-02T02:55:40.877Z,95295.56
2019-03-02T04:04:01.599Z,95301.62
2019-03-02T04:09:07.717Z,95293.78
2019-03-02T04:14:04.996Z,95301.56
2019-03-02T04:19:06.325Z,95301.11
2019-03-02T04:24:07.649Z,95298.70
2019-03-02T04:29:11.386Z,95302.48
2019-03-02T06:02:54.828Z,95353.02
2019-03-02T06:07:57.542Z,95348.14
2019-03-02T06:12:57.678Z,95350.53
2019-03-02T06:17:59.706Z,95344.29
2019-03-02T06:23:00.984Z,95345.02
2019-03-02T06:28:02.246Z,95348.08
2019-03-02T06:33:05.108Z,95352.27
2019-03-02T06:38:04.889Z,95351.26
2019-03-02T06:43:06.231Z,95343.66
2019-03-02T06:48:09.633Z,95341.26
2019-03-02T06:53:09.496Z,95338.10
2019-03-02T06:58:10.778Z,95347.41
2019-03-02T07:03:12.906Z,95344.59
2019-03-02T07:08:14.337Z,95349.94
2019-03-02T07:13:17.817Z,95353.95
2019-03-02T07:18:26.915Z,95354.46
2019-03-02T07:23:28.789Z,95363.69
2019-03-02T07:28:29.708Z,95360.93
2019-03-02T07:33:31.044Z,95354.02
2019-03-02T07:38:32.448Z,95352.30
2019-03-02T07:43:34.532Z,95357.55
2019-03-02T07:48:36.908Z,95356.41
2019-03-02T07:53:38.790Z,95352.05
2019-03-02T07:58:40.838Z,95356.19
2019-03-02T08:03:42.164Z,95362.26
2019-03-02T08:08:45.815Z,95358.59
2019-03-02T08:13:45.645Z,95361.81
2019-03-02T08:18:46.941Z,95359.63
2019-03-02T08:23:48.253Z,95365.30
2019-03-02T08:28:50.940Z,95362.95
2019-03-02T08:33:50.932Z,95363.83
2019-03-02T08:38:52.256Z,95349.81
2019-03-02T08:43:53.557Z,95355.10
2019-03-02T08:48:54.863Z,95359.07
2019-03-02T08:53:56.167Z,95355.73
2019-03-02T08:58:57.987Z,95349.24
2019-03-02T09:04:00.219Z,95352.70
2019-03-02T09:09:01.549Z,95343.13
2019-03-02T09:14:02.865Z,95335.31
2019-03-02T09:19:04.229Z,95338.07
2019-03-02T09:24:05.568Z,95324.24
2019-03-02T09:29:06.883Z,95320.11
2019-03-02T09:34:08.975Z,95318.66
2019-03-02T09:39:11.133Z,95320.91
2019-03-02T09:44:12.519Z,95322.16
2019-03-02T09:49:23.952Z,95326.97
2019-03-02T09:54:25.259Z,95329.16
2019-03-02T09:59:33.744Z,95330.56
2019-03-02T10:04:42.449Z,95329.30
2019-03-02T10:09:46.508Z,95322.45
2019-03-02T10:14:47.798Z,95324.59
2019-03-02T10:19:49.213Z,95325.92
2019-03-02T10:24:53.279Z,95316.41
2019-03-02T10:29:51.952Z,95315.47
2019-03-02T10:34:53.364Z,95317.58
2019-03-02T10:39:54.725Z,95320.02
2019-03-02T10:44:57.294Z,95331.38
2019-03-02T10:49:57.341Z,95320.27
2019-03-02T10:54:58.699Z,95315.19
2019-03-02T11:00:00.046Z,95321.25
2019-03-02T11:05:01.507Z,95316.42
2019-03-02T11:15:39.633Z,95318.76
2019-03-02T11:20:41.839Z,95308.93
2019-03-02T11:25:45.501Z,95316.61
2019-03-02T11:30:48.586Z,95312.70
2019-03-02T11:41:18.046Z,95311.71
2019-03-02T11:46:21.088Z,95316.05
2019-03-02T11:51:24.086Z,95312.02
2019-03-02T11:56:30.156Z,95316.66
2019-03-02T12:01:37.586Z,95305.66
2019-03-02T12:06:41.941Z,95311.17
2019-03-02T12:11:46.909Z,95307.75
2019-03-02T12:22:42.473Z,95284.73
2019-03-02T12:27:49.792Z,95288.23
2019-03-02T12:32:52.011Z,95282.41
2019-03-02T12:43:28.525Z,95274.76
2019-03-02T12:48:31.765Z,95283.91
2019-03-02T12:53:45.344Z,95276.13
2019-03-02T12:58:55.427Z,95268.63
2019-03-02T13:03:55.625Z,95273.28
2019-03-02T13:09:13.523Z,95270.84
2019-03-02T13:14:19.231Z,95268.55
2019-03-02T13:19:23.005Z,95256.22
2019-03-02T13:24:26.688Z,95263.26
2019-03-02T13:29:34.911Z,95265.44
2019-03-02T13:40:26.305Z,95266.86
2019-03-02T13:45:31.970Z,95263.53
2019-03-02T13:50:39.396Z,95258.38
2019-03-02T13:55:50.856Z,95249.34
2019-03-02T14:01:01.793Z,95259.77
2019-03-02T14:06:19.743Z,95240.80
2019-03-02T14:11:26.360Z,95239.69
2019-03-02T14:22:02.676Z,95231.94
2019-03-02T14:27:11.453Z,95224.34
2019-03-02T14:32:26.511Z,95231.92
2019-03-02T14:37:29.729Z,95214.80
2019-03-02T14:42:31.885Z,95207.52
2019-03-02T14:47:36.594Z,95211.46
2019-03-02T14:52:38.531Z,95216.13
2019-03-02T15:03:14.977Z,95221.51
2019-03-02T15:08:17.082Z,95219.22
2019-03-02T15:18:50.221Z,95210.03
2019-03-02T15:29:37.168Z,95209.20
2019-03-02T15:34:49.680Z,95205.88
2019-03-02T15:39:53.630Z,95203.47
2019-03-02T15:45:00.536Z,95206.13
2019-03-02T15:55:30.321Z,95200.11
2019-03-02T16:00:36.520Z,95202.67
2019-03-02T16:05:44.190Z,95217.95
2019-03-02T16:10:48.156Z,95219.22
2019-03-02T16:15:54.464Z,95218.33
2019-03-02T16:21:03.660Z,95221.43
2019-03-02T16:26:07.111Z,95219.81
2019-03-02T16:31:12.502Z,95217.88
2019-03-02T16:36:13.948Z,95222.02
2019-03-02T16:41:18.345Z,95216.60
2019-03-02T16:46:21.462Z,95223.80
2019-03-02T16:51:29.716Z,95231.02
2019-03-02T16:56:36.123Z,95231.84
2019-03-02T17:01:53.433Z,95234.97
2019-03-02T17:07:01.724Z,95236.04
2019-03-02T17:12:08.276Z,95238.14
2019-03-02T17:17:12.035Z,95241.31
2019-03-02T17:22:12.527Z,95248.39
2019-03-02T17:27:17.785Z,95251.05
2019-03-02T17:32:19.185Z,95255.55
2019-03-02T17:37:23.495Z,95261.03
2019-03-02T17:42:31.844Z,95259.55
2019-03-02T17:53:05.748Z,95262.80
2019-03-02T17:58:15.392Z,95269.16
2019-03-02T18:03:25.048Z,95267.80
2019-03-02T18:08:39.067Z,95271.02
2019-03-02T18:13:49.021Z,95272.77
2019-03-02T18:18:51.703Z,95270.59
2019-03-02T18:23:55.795Z,95266.23
2019-03-02T18:28:55.903Z,95267.23
2019-03-02T18:33:57.792Z,95272.92
2019-03-02T18:39:01.167Z,95277.13
2019-03-02T18:44:01.975Z,95274.87
2019-03-02T18:49:13.839Z,95274.63
2019-03-02T18:54:12.111Z,95280.65
2019-03-02T18:59:13.636Z,95280.67
2019-03-02T19:04:14.984Z,95293.23
2019-03-02T19:09:16.332Z,95287.41
2019-03-02T19:14:21.061Z,95297.63
2019-03-02T19:19:22.895Z,95301.31
2019-03-02T19:24:24.626Z,95321.72
2019-03-02T19:29:26.004Z,95311.16
2019-03-02T19:34:27.975Z,95303.05
2019-03-02T19:39:30.610Z,95312.53
2019-03-02T19:44:33.430Z,95315.34
2019-03-02T19:49:36.044Z,95317.09
2019-03-02T19:54:38.795Z,95319.16
2019-03-02T19:59:43.818Z,95322.17
2019-03-02T20:04:47.052Z,95326.44
2019-03-02T20:09:50.091Z,95325.44
2019-03-02T20:14:52.005Z,95331.92
2019-03-02T20:19:53.997Z,95335.67
2019-03-02T20:24:58.576Z,95336.08
2019-03-02T20:30:01.656Z,95338.91
2019-03-02T20:35:04.199Z,95344.70
2019-03-02T20:40:08.121Z,95340.05
2019-03-02T20:45:12.297Z,95344.46
2019-03-02T20:50:15.992Z,95345.41
2019-03-02T20:55:18.003Z,95345.95
2019-03-02T21:00:34.802Z,95345.13
2019-03-02T21:05:39.351Z,95346.64
2019-03-02T21:10:48.402Z,95348.02
2019-03-02T21:15:53.395Z,95350.22
2019-03-02T21:20:56.021Z,95346.72
2019-03-02T21:26:03.066Z,95334.94
2019-03-02T21:31:06.938Z,95338.31
2019-03-02T21:36:13.923Z,95343.24
2019-03-02T21:41:18.360Z,95349.80
2019-03-02T21:46:20.392Z,95349.84
2019-03-02T21:51:21.724Z,95359.55
2019-03-02T21:56:23.031Z,95352.63
2019-03-02T22:01:24.333Z,95359.27
2019-03-02T22:06:26.425Z,95351.68
2019-03-02T22:11:27.810Z,95348.69
2019-03-02T22:16:29.094Z,95351.75
2019-03-02T22:21:30.457Z,95361.05
2019-03-02T22:26:31.726Z,95355.89
2019-03-02T22:31:35.995Z,95354.00
2019-03-02T22:36:37.947Z,95354.88
2019-03-02T22:41:39.250Z,95354.25
2019-03-02T22:46:40.544Z,95341.00
2019-03-02T22:51:41.897Z,95346.53
2019-03-02T22:56:43.227Z,95348.69
2019-03-02T23:33:24.907Z,95346.32
2019-03-02T23:38:26.197Z,95356.21
2019-03-02T23:43:28.205Z,95346.64
2019-03-02T23:48:29.507Z,95351.37
2019-03-02T23:53:30.798Z,95343.02
2019-03-02T23:58:32.835Z,95338.68
